sensor_id;sensor_type;location;lat;lon;timestamp;P1;P2;P0
79537;PMS5003;68989;52.032;5.152;2023-05-10T00:01:27;33;28;
79537;PMS5003;68989;52.032;5.152;2023-05-10T00:03:53;31;30;
79537;PMS5003;68989;52.032;5.152;2023-05-10T00:06:20;33;31;
79537;PMS5003;68989;52.032;5.152;2023-05-10T00:08:47;29;28;
79537;PMS5003;68989;52.032;5.152;2023-05-10T00:11:14;32;32;
79537;PMS5003;68989;52.032;5.152;2023-05-10T00:13:42;34;29;
79537;PMS5003;68989;52.032;5.152;2023-05-10T00:16:09;35;32;
79537;PMS5003;68989;52.032;5.152;2023-05-10T00:18:36;31;28;
79537;PMS5003;68989;52.032;5.152;2023-05-10T00:21:03;30;27;
79537;PMS5003;68989;52.032;5.152;2023-05-10T00:23:31;37;30;
79537;PMS5003;68989;52.032;5.152;2023-05-10T00:25:58;34;32;
79537;PMS5003;68989;52.032;5.152;2023-05-10T00:28:27;34;30;
79537;PMS5003;68989;52.032;5.152;2023-05-10T00:30:54;32;30;
79537;PMS5003;68989;52.032;5.152;2023-05-10T00:33:21;32;32;
79537;PMS5003;68989;52.032;5.152;2023-05-10T00:35:48;37;36;
79537;PMS5003;68989;52.032;5.152;2023-05-10T00:38:15;32;32;
79537;PMS5003;68989;52.032;5.152;2023-05-10T00:40:41;35;32;
79537;PMS5003;68989;52.032;5.152;2023-05-10T00:43:08;37;33;
79537;PMS5003;68989;52.032;5.152;2023-05-10T00:45:35;33;29;
79537;PMS5003;68989;52.032;5.152;2023-05-10T00:48:03;37;30;
79537;PMS5003;68989;52.032;5.152;2023-05-10T00:50:31;37;35;
79537;PMS5003;68989;52.032;5.152;2023-05-10T00:52:59;32;31;
79537;PMS5003;68989;52.032;5.152;2023-05-10T00:55:27;33;32;
79537;PMS5003;68989;52.032;5.152;2023-05-10T00:57:54;34;30;
79537;PMS5003;68989;52.032;5.152;2023-05-10T01:01:48;31;30;
79537;PMS5003;68989;52.032;5.152;2023-05-10T01:04:15;39;33;
79537;PMS5003;68989;52.032;5.152;2023-05-10T01:06:42;31;31;
79537;PMS5003;68989;52.032;5.152;2023-05-10T01:09:10;33;28;
79537;PMS5003;68989;52.032;5.152;2023-05-10T01:11:38;33;32;
79537;PMS5003;68989;52.032;5.152;2023-05-10T01:14:06;34;30;
79537;PMS5003;68989;52.032;5.152;2023-05-10T01:16:35;38;31;
79537;PMS5003;68989;52.032;5.152;2023-05-10T01:19:04;29;28;
79537;PMS5003;68989;52.032;5.152;2023-05-10T01:21:38;34;30;
79537;PMS5003;68989;52.032;5.152;2023-05-10T01:24:19;37;29;
79537;PMS5003;68989;52.032;5.152;2023-05-10T01:26:35;31;28;
79537;PMS5003;68989;52.032;5.152;2023-05-10T01:29:25;31;30;
79537;PMS5003;68989;52.032;5.152;2023-05-10T01:32:07;33;32;
79537;PMS5003;68989;52.032;5.152;2023-05-10T01:34:42;37;35;
79537;PMS5003;68989;52.032;5.152;2023-05-10T01:37:22;35;34;
79537;PMS5003;68989;52.032;5.152;2023-05-10T01:39:57;39;36;
79537;PMS5003;68989;52.032;5.152;2023-05-10T01:42:36;43;37;
79537;PMS5003;68989;52.032;5.152;2023-05-10T01:45:08;35;35;
79537;PMS5003;68989;52.032;5.152;2023-05-10T01:47:43;43;40;
79537;PMS5003;68989;52.032;5.152;2023-05-10T01:50:15;42;37;
79537;PMS5003;68989;52.032;5.152;2023-05-10T01:52:47;34;32;
79537;PMS5003;68989;52.032;5.152;2023-05-10T01:55:19;45;38;
79537;PMS5003;68989;52.032;5.152;2023-05-10T01:57:48;33;32;
79537;PMS5003;68989;52.032;5.152;2023-05-10T02:00:21;44;40;
79537;PMS5003;68989;52.032;5.152;2023-05-10T02:02:49;41;35;
79537;PMS5003;68989;52.032;5.152;2023-05-10T02:05:18;44;42;
79537;PMS5003;68989;52.032;5.152;2023-05-10T02:07:48;44;42;
79537;PMS5003;68989;52.032;5.152;2023-05-10T02:10:17;41;40;
79537;PMS5003;68989;52.032;5.152;2023-05-10T02:12:45;47;42;
79537;PMS5003;68989;52.032;5.152;2023-05-10T02:15:17;50;43;
79537;PMS5003;68989;52.032;5.152;2023-05-10T02:17:47;41;38;
79537;PMS5003;68989;52.032;5.152;2023-05-10T02:20:15;50;42;
79537;PMS5003;68989;52.032;5.152;2023-05-10T02:22:44;44;40;
79537;PMS5003;68989;52.032;5.152;2023-05-10T02:25:13;47;45;
79537;PMS5003;68989;52.032;5.152;2023-05-10T02:27:41;46;44;
79537;PMS5003;68989;52.032;5.152;2023-05-10T02:30:10;45;43;
79537;PMS5003;68989;52.032;5.152;2023-05-10T02:32:39;57;48;
79537;PMS5003;68989;52.032;5.152;2023-05-10T02:35:06;51;42;
79537;PMS5003;68989;52.032;5.152;2023-05-10T02:37:35;53;46;
79537;PMS5003;68989;52.032;5.152;2023-05-10T02:40:03;41;41;
79537;PMS5003;68989;52.032;5.152;2023-05-10T02:42:32;49;45;
79537;PMS5003;68989;52.032;5.152;2023-05-10T02:45:03;47;42;
79537;PMS5003;68989;52.032;5.152;2023-05-10T02:47:34;42;41;
79537;PMS5003;68989;52.032;5.152;2023-05-10T02:50:02;46;39;
79537;PMS5003;68989;52.032;5.152;2023-05-10T02:52:30;45;43;
79537;PMS5003;68989;52.032;5.152;2023-05-10T02:55:06;50;42;
79537;PMS5003;68989;52.032;5.152;2023-05-10T02:57:38;43;39;
79537;PMS5003;68989;52.032;5.152;2023-05-10T03:00:12;48;42;
79537;PMS5003;68989;52.032;5.152;2023-05-10T03:02:40;50;43;
79537;PMS5003;68989;52.032;5.152;2023-05-10T03:05:07;52;42;
79537;PMS5003;68989;52.032;5.152;2023-05-10T03:07:34;48;45;
79537;PMS5003;68989;52.032;5.152;2023-05-10T03:10:03;47;39;
79537;PMS5003;68989;52.032;5.152;2023-05-10T03:12:33;44;39;
79537;PMS5003;68989;52.032;5.152;2023-05-10T03:15:15;51;46;
79537;PMS5003;68989;52.032;5.152;2023-05-10T03:17:52;45;43;
79537;PMS5003;68989;52.032;5.152;2023-05-10T03:20:24;39;36;
79537;PMS5003;68989;52.032;5.152;2023-05-10T03:22:55;43;38;
79537;PMS5003;68989;52.032;5.152;2023-05-10T03:25:29;48;43;
79537;PMS5003;68989;52.032;5.152;2023-05-10T03:27:57;41;35;
79537;PMS5003;68989;52.032;5.152;2023-05-10T03:30:26;44;37;
79537;PMS5003;68989;52.032;5.152;2023-05-10T03:32:53;41;37;
79537;PMS5003;68989;52.032;5.152;2023-05-10T03:35:20;41;39;
79537;PMS5003;68989;52.032;5.152;2023-05-10T03:37:47;45;42;
79537;PMS5003;68989;52.032;5.152;2023-05-10T03:40:15;41;38;
79537;PMS5003;68989;52.032;5.152;2023-05-10T03:42:41;49;39;
79537;PMS5003;68989;52.032;5.152;2023-05-10T03:45:09;46;41;
79537;PMS5003;68989;52.032;5.152;2023-05-10T03:47:36;44;43;
79537;PMS5003;68989;52.032;5.152;2023-05-10T03:50:04;43;39;
79537;PMS5003;68989;52.032;5.152;2023-05-10T03:52:32;41;36;
79537;PMS5003;68989;52.032;5.152;2023-05-10T03:54:58;54;45;
79537;PMS5003;68989;52.032;5.152;2023-05-10T03:57:26;45;37;
79537;PMS5003;68989;52.032;5.152;2023-05-10T03:59:53;43;39;
79537;PMS5003;68989;52.032;5.152;2023-05-10T04:02:20;40;36;
79537;PMS5003;68989;52.032;5.152;2023-05-10T04:04:47;45;41;
79537;PMS5003;68989;52.032;5.152;2023-05-10T04:07:14;46;41;
79537;PMS5003;68989;52.032;5.152;2023-05-10T04:09:41;49;42;
79537;PMS5003;68989;52.032;5.152;2023-05-10T04:12:08;47;39;
79537;PMS5003;68989;52.032;5.152;2023-05-10T04:14:35;46;44;
79537;PMS5003;68989;52.032;5.152;2023-05-10T04:17:02;52;44;
79537;PMS5003;68989;52.032;5.152;2023-05-10T04:19:29;54;49;
79537;PMS5003;68989;52.032;5.152;2023-05-10T04:21:56;49;42;
79537;PMS5003;68989;52.032;5.152;2023-05-10T04:24:24;52;46;
79537;PMS5003;68989;52.032;5.152;2023-05-10T04:26:51;45;42;
79537;PMS5003;68989;52.032;5.152;2023-05-10T04:29:20;48;45;
79537;PMS5003;68989;52.032;5.152;2023-05-10T04:31:47;55;47;
79537;PMS5003;68989;52.032;5.152;2023-05-10T04:34:14;47;45;
79537;PMS5003;68989;52.032;5.152;2023-05-10T04:36:41;54;49;
79537;PMS5003;68989;52.032;5.152;2023-05-10T04:39:08;48;48;
79537;PMS5003;68989;52.032;5.152;2023-05-10T04:41:34;49;44;
79537;PMS5003;68989;52.032;5.152;2023-05-10T04:44:04;50;45;
79537;PMS5003;68989;52.032;5.152;2023-05-10T04:46:31;53;48;
79537;PMS5003;68989;52.032;5.152;2023-05-10T04:48:58;56;48;
79537;PMS5003;68989;52.032;5.152;2023-05-10T04:51:24;52;45;
79537;PMS5003;68989;52.032;5.152;2023-05-10T04:53:51;54;49;
79537;PMS5003;68989;52.032;5.152;2023-05-10T04:56:18;51;45;
79537;PMS5003;68989;52.032;5.152;2023-05-10T04:58:45;52;46;
79537;PMS5003;68989;52.032;5.152;2023-05-10T05:01:12;59;49;
79537;PMS5003;68989;52.032;5.152;2023-05-10T05:03:40;59;49;
79537;PMS5003;68989;52.032;5.152;2023-05-10T05:06:07;53;48;
79537;PMS5003;68989;52.032;5.152;2023-05-10T05:08:34;52;45;
79537;PMS5003;68989;52.032;5.152;2023-05-10T05:11:00;59;51;
79537;PMS5003;68989;52.032;5.152;2023-05-10T05:13:27;58;53;
79537;PMS5003;68989;52.032;5.152;2023-05-10T05:15:55;52;46;
79537;PMS5003;68989;52.032;5.152;2023-05-10T05:18:21;50;46;
79537;PMS5003;68989;52.032;5.152;2023-05-10T05:20:48;48;47;
79537;PMS5003;68989;52.032;5.152;2023-05-10T05:23:16;52;47;
79537;PMS5003;68989;52.032;5.152;2023-05-10T05:25:43;51;47;
79537;PMS5003;68989;52.032;5.152;2023-05-10T05:28:10;57;49;
79537;PMS5003;68989;52.032;5.152;2023-05-10T05:30:38;49;47;
79537;PMS5003;68989;52.032;5.152;2023-05-10T05:33:05;54;46;
79537;PMS5003;68989;52.032;5.152;2023-05-10T05:35:32;56;52;
79537;PMS5003;68989;52.032;5.152;2023-05-10T05:37:59;58;47;
79537;PMS5003;68989;52.032;5.152;2023-05-10T05:40:26;50;46;
79537;PMS5003;68989;52.032;5.152;2023-05-10T05:42:53;56;53;
79537;PMS5003;68989;52.032;5.152;2023-05-10T05:45:21;57;53;
79537;PMS5003;68989;52.032;5.152;2023-05-10T05:47:47;53;50;
79537;PMS5003;68989;52.032;5.152;2023-05-10T05:50:15;51;48;
79537;PMS5003;68989;52.032;5.152;2023-05-10T05:52:41;49;46;
79537;PMS5003;68989;52.032;5.152;2023-05-10T05:55:09;55;49;
79537;PMS5003;68989;52.032;5.152;2023-05-10T05:57:36;55;50;
79537;PMS5003;68989;52.032;5.152;2023-05-10T06:00:04;56;48;
79537;PMS5003;68989;52.032;5.152;2023-05-10T06:02:31;58;52;
79537;PMS5003;68989;52.032;5.152;2023-05-10T06:04:58;53;50;
79537;PMS5003;68989;52.032;5.152;2023-05-10T06:07:25;51;50;
79537;PMS5003;68989;52.032;5.152;2023-05-10T06:09:52;50;47;
79537;PMS5003;68989;52.032;5.152;2023-05-10T06:12:19;51;51;
79537;PMS5003;68989;52.032;5.152;2023-05-10T06:14:47;59;52;
79537;PMS5003;68989;52.032;5.152;2023-05-10T06:17:13;54;47;
79537;PMS5003;68989;52.032;5.152;2023-05-10T06:19:40;51;46;
79537;PMS5003;68989;52.032;5.152;2023-05-10T06:22:07;55;48;
79537;PMS5003;68989;52.032;5.152;2023-05-10T06:24:34;48;44;
79537;PMS5003;68989;52.032;5.152;2023-05-10T06:27:01;48;41;
79537;PMS5003;68989;52.032;5.152;2023-05-10T06:29:28;43;36;
79537;PMS5003;68989;52.032;5.152;2023-05-10T06:31:56;44;41;
79537;PMS5003;68989;52.032;5.152;2023-05-10T06:34:22;48;42;
79537;PMS5003;68989;52.032;5.152;2023-05-10T06:36:50;43;41;
79537;PMS5003;68989;52.032;5.152;2023-05-10T06:39:17;45;40;
79537;PMS5003;68989;52.032;5.152;2023-05-10T06:41:44;37;32;
79537;PMS5003;68989;52.032;5.152;2023-05-10T06:44:11;35;32;
79537;PMS5003;68989;52.032;5.152;2023-05-10T06:46:38;35;32;
79537;PMS5003;68989;52.032;5.152;2023-05-10T06:49:05;32;29;
79537;PMS5003;68989;52.032;5.152;2023-05-10T06:51:32;25;25;
79537;PMS5003;68989;52.032;5.152;2023-05-10T06:53:59;33;30;
79537;PMS5003;68989;52.032;5.152;2023-05-10T06:56:26;26;23;
79537;PMS5003;68989;52.032;5.152;2023-05-10T06:58:53;26;24;
79537;PMS5003;68989;52.032;5.152;2023-05-10T07:01:21;28;28;
79537;PMS5003;68989;52.032;5.152;2023-05-10T07:03:48;27;25;
79537;PMS5003;68989;52.032;5.152;2023-05-10T07:06:15;21;19;
79537;PMS5003;68989;52.032;5.152;2023-05-10T07:08:41;19;18;
79537;PMS5003;68989;52.032;5.152;2023-05-10T07:11:08;20;20;
79537;PMS5003;68989;52.032;5.152;2023-05-10T07:13:35;23;23;
79537;PMS5003;68989;52.032;5.152;2023-05-10T07:16:02;25;23;
79537;PMS5003;68989;52.032;5.152;2023-05-10T07:18:30;19;19;
79537;PMS5003;68989;52.032;5.152;2023-05-10T07:20:57;17;15;
79537;PMS5003;68989;52.032;5.152;2023-05-10T07:23:24;17;17;
79537;PMS5003;68989;52.032;5.152;2023-05-10T07:25:51;15;15;
79537;PMS5003;68989;52.032;5.152;2023-05-10T07:28:19;17;16;
79537;PMS5003;68989;52.032;5.152;2023-05-10T07:30:46;21;21;
79537;PMS5003;68989;52.032;5.152;2023-05-10T07:33:14;16;15;
79537;PMS5003;68989;52.032;5.152;2023-05-10T07:35:41;18;15;
79537;PMS5003;68989;52.032;5.152;2023-05-10T07:38:09;15;15;
79537;PMS5003;68989;52.032;5.152;2023-05-10T07:40:36;18;18;
79537;PMS5003;68989;52.032;5.152;2023-05-10T07:43:03;18;18;
79537;PMS5003;68989;52.032;5.152;2023-05-10T07:45:30;16;16;
79537;PMS5003;68989;52.032;5.152;2023-05-10T07:47:57;16;16;
79537;PMS5003;68989;52.032;5.152;2023-05-10T07:50:23;25;22;
79537;PMS5003;68989;52.032;5.152;2023-05-10T07:52:50;19;17;
79537;PMS5003;68989;52.032;5.152;2023-05-10T07:55:18;17;15;
79537;PMS5003;68989;52.032;5.152;2023-05-10T07:57:45;20;18;
79537;PMS5003;68989;52.032;5.152;2023-05-10T08:00:13;24;19;
79537;PMS5003;68989;52.032;5.152;2023-05-10T08:02:44;17;17;
79537;PMS5003;68989;52.032;5.152;2023-05-10T08:05:12;19;16;
79537;PMS5003;68989;52.032;5.152;2023-05-10T08:07:39;16;15;
79537;PMS5003;68989;52.032;5.152;2023-05-10T08:10:07;15;14;
79537;PMS5003;68989;52.032;5.152;2023-05-10T08:12:35;20;17;
79537;PMS5003;68989;52.032;5.152;2023-05-10T08:15:02;21;18;
79537;PMS5003;68989;52.032;5.152;2023-05-10T08:17:30;17;15;
79537;PMS5003;68989;52.032;5.152;2023-05-10T08:19:57;15;15;
79537;PMS5003;68989;52.032;5.152;2023-05-10T08:22:24;16;14;
79537;PMS5003;68989;52.032;5.152;2023-05-10T08:24:51;15;14;
79537;PMS5003;68989;52.032;5.152;2023-05-10T08:27:18;17;15;
79537;PMS5003;68989;52.032;5.152;2023-05-10T08:29:45;17;13;
79537;PMS5003;68989;52.032;5.152;2023-05-10T08:32:12;14;12;
79537;PMS5003;68989;52.032;5.152;2023-05-10T08:34:39;12;12;
79537;PMS5003;68989;52.032;5.152;2023-05-10T08:37:06;11;11;
79537;PMS5003;68989;52.032;5.152;2023-05-10T08:39:34;15;15;
79537;PMS5003;68989;52.032;5.152;2023-05-10T08:42:01;13;13;
79537;PMS5003;68989;52.032;5.152;2023-05-10T08:44:32;13;12;
79537;PMS5003;68989;52.032;5.152;2023-05-10T08:47:02;14;14;
79537;PMS5003;68989;52.032;5.152;2023-05-10T08:49:32;15;14;
79537;PMS5003;68989;52.032;5.152;2023-05-10T08:52:01;14;14;
79537;PMS5003;68989;52.032;5.152;2023-05-10T08:54:29;13;11;
79537;PMS5003;68989;52.032;5.152;2023-05-10T08:56:58;16;13;
79537;PMS5003;68989;52.032;5.152;2023-05-10T08:59:25;13;13;
79537;PMS5003;68989;52.032;5.152;2023-05-10T09:01:53;12;12;
79537;PMS5003;68989;52.032;5.152;2023-05-10T09:04:21;10;10;
79537;PMS5003;68989;52.032;5.152;2023-05-10T09:06:49;12;12;
79537;PMS5003;68989;52.032;5.152;2023-05-10T09:09:16;13;13;
79537;PMS5003;68989;52.032;5.152;2023-05-10T09:11:44;13;13;
79537;PMS5003;68989;52.032;5.152;2023-05-10T09:14:11;13;11;
79537;PMS5003;68989;52.032;5.152;2023-05-10T09:16:39;8;8;
79537;PMS5003;68989;52.032;5.152;2023-05-10T09:19:06;16;13;
79537;PMS5003;68989;52.032;5.152;2023-05-10T09:21:35;9;9;
79537;PMS5003;68989;52.032;5.152;2023-05-10T09:24:02;11;10;
79537;PMS5003;68989;52.032;5.152;2023-05-10T09:26:30;9;8;
79537;PMS5003;68989;52.032;5.152;2023-05-10T09:28:57;8;8;
79537;PMS5003;68989;52.032;5.152;2023-05-10T09:31:42;9;9;
79537;PMS5003;68989;52.032;5.152;2023-05-10T09:34:11;6;6;
79537;PMS5003;68989;52.032;5.152;2023-05-10T09:36:49;8;7;
79537;PMS5003;68989;52.032;5.152;2023-05-10T09:39:17;8;8;
79537;PMS5003;68989;52.032;5.152;2023-05-10T09:41:44;10;9;
79537;PMS5003;68989;52.032;5.152;2023-05-10T09:44:11;6;6;
79537;PMS5003;68989;52.032;5.152;2023-05-10T09:46:37;9;9;
79537;PMS5003;68989;52.032;5.152;2023-05-10T09:49:05;7;7;
79537;PMS5003;68989;52.032;5.152;2023-05-10T09:51:32;12;10;
79537;PMS5003;68989;52.032;5.152;2023-05-10T09:54:09;7;7;
79537;PMS5003;68989;52.032;5.152;2023-05-10T09:56:37;8;6;
79537;PMS5003;68989;52.032;5.152;2023-05-10T09:59:05;6;6;
79537;PMS5003;68989;52.032;5.152;2023-05-10T10:01:33;7;7;
79537;PMS5003;68989;52.032;5.152;2023-05-10T10:04:02;9;7;
79537;PMS5003;68989;52.032;5.152;2023-05-10T10:06:34;8;6;
79537;PMS5003;68989;52.032;5.152;2023-05-10T10:09:02;5;5;
79537;PMS5003;68989;52.032;5.152;2023-05-10T10:11:28;9;8;
79537;PMS5003;68989;52.032;5.152;2023-05-10T10:13:56;11;8;
79537;PMS5003;68989;52.032;5.152;2023-05-10T10:16:24;9;7;
79537;PMS5003;68989;52.032;5.152;2023-05-10T10:18:51;10;8;
79537;PMS5003;68989;52.032;5.152;2023-05-10T10:21:18;10;9;
79537;PMS5003;68989;52.032;5.152;2023-05-10T10:23:46;6;6;
79537;PMS5003;68989;52.032;5.152;2023-05-10T10:26:13;10;9;
79537;PMS5003;68989;52.032;5.152;2023-05-10T10:28:44;9;7;
79537;PMS5003;68989;52.032;5.152;2023-05-10T10:31:17;6;6;
79537;PMS5003;68989;52.032;5.152;2023-05-10T10:33:57;7;7;
79537;PMS5003;68989;52.032;5.152;2023-05-10T10:36:28;6;6;
79537;PMS5003;68989;52.032;5.152;2023-05-10T10:38:57;8;8;
79537;PMS5003;68989;52.032;5.152;2023-05-10T10:41:29;6;6;
79537;PMS5003;68989;52.032;5.152;2023-05-10T10:45:11;9;8;
79537;PMS5003;68989;52.032;5.152;2023-05-10T10:47:39;8;8;
79537;PMS5003;68989;52.032;5.152;2023-05-10T10:50:06;9;7;
79537;PMS5003;68989;52.032;5.152;2023-05-10T10:52:34;11;9;
79537;PMS5003;68989;52.032;5.152;2023-05-10T10:55:03;8;8;
79537;PMS5003;68989;52.032;5.152;2023-05-10T10:57:33;12;9;
79537;PMS5003;68989;52.032;5.152;2023-05-10T11:00:25;9;8;
79537;PMS5003;68989;52.032;5.152;2023-05-10T11:02:55;9;9;
79537;PMS5003;68989;52.032;5.152;2023-05-10T11:05:25;10;10;
79537;PMS5003;68989;52.032;5.152;2023-05-10T11:08:00;13;11;
79537;PMS5003;68989;52.032;5.152;2023-05-10T11:10:35;8;8;
79537;PMS5003;68989;52.032;5.152;2023-05-10T11:13:02;8;8;
79537;PMS5003;68989;52.032;5.152;2023-05-10T11:15:31;7;7;
79537;PMS5003;68989;52.032;5.152;2023-05-10T11:18:00;9;7;
79537;PMS5003;68989;52.032;5.152;2023-05-10T11:20:44;8;8;
79537;PMS5003;68989;52.032;5.152;2023-05-10T11:23:16;8;6;
79537;PMS5003;68989;52.032;5.152;2023-05-10T11:25:43;11;10;
79537;PMS5003;68989;52.032;5.152;2023-05-10T11:28:11;12;7;
79537;PMS5003;68989;52.032;5.152;2023-05-10T11:30:39;10;9;
79537;PMS5003;68989;52.032;5.152;2023-05-10T11:33:07;9;9;
79537;PMS5003;68989;52.032;5.152;2023-05-10T11:35:38;12;9;
79537;PMS5003;68989;52.032;5.152;2023-05-10T11:38:06;6;6;
79537;PMS5003;68989;52.032;5.152;2023-05-10T11:40:33;9;8;
79537;PMS5003;68989;52.032;5.152;2023-05-10T11:43:01;12;10;
79537;PMS5003;68989;52.032;5.152;2023-05-10T11:45:29;10;8;
79537;PMS5003;68989;52.032;5.152;2023-05-10T11:47:58;9;9;
79537;PMS5003;68989;52.032;5.152;2023-05-10T11:50:26;11;10;
79537;PMS5003;68989;52.032;5.152;2023-05-10T11:52:54;15;11;
79537;PMS5003;68989;52.032;5.152;2023-05-10T11:55:22;14;14;
79537;PMS5003;68989;52.032;5.152;2023-05-10T11:57:51;9;9;
79537;PMS5003;68989;52.032;5.152;2023-05-10T12:00:19;13;13;
79537;PMS5003;68989;52.032;5.152;2023-05-10T12:02:46;11;10;
79537;PMS5003;68989;52.032;5.152;2023-05-10T12:05:14;13;11;
79537;PMS5003;68989;52.032;5.152;2023-05-10T12:07:41;11;11;
79537;PMS5003;68989;52.032;5.152;2023-05-10T12:10:09;10;10;
79537;PMS5003;68989;52.032;5.152;2023-05-10T12:12:38;7;7;
79537;PMS5003;68989;52.032;5.152;2023-05-10T12:15:06;8;8;
79537;PMS5003;68989;52.032;5.152;2023-05-10T12:17:38;10;10;
79537;PMS5003;68989;52.032;5.152;2023-05-10T12:20:13;10;9;
79537;PMS5003;68989;52.032;5.152;2023-05-10T12:22:40;9;9;
79537;PMS5003;68989;52.032;5.152;2023-05-10T12:25:10;9;8;
79537;PMS5003;68989;52.032;5.152;2023-05-10T12:27:37;11;10;
79537;PMS5003;68989;52.032;5.152;2023-05-10T12:30:04;11;11;
79537;PMS5003;68989;52.032;5.152;2023-05-10T12:32:40;12;12;
79537;PMS5003;68989;52.032;5.152;2023-05-10T12:35:07;10;10;
79537;PMS5003;68989;52.032;5.152;2023-05-10T12:37:34;12;12;
79537;PMS5003;68989;52.032;5.152;2023-05-10T12:40:02;14;14;
79537;PMS5003;68989;52.032;5.152;2023-05-10T12:42:29;10;10;
79537;PMS5003;68989;52.032;5.152;2023-05-10T12:44:56;15;13;
79537;PMS5003;68989;52.032;5.152;2023-05-10T12:47:23;9;8;
79537;PMS5003;68989;52.032;5.152;2023-05-10T12:49:50;14;12;
79537;PMS5003;68989;52.032;5.152;2023-05-10T12:52:16;6;6;
79537;PMS5003;68989;52.032;5.152;2023-05-10T12:54:43;11;11;
79537;PMS5003;68989;52.032;5.152;2023-05-10T12:57:10;10;10;
79537;PMS5003;68989;52.032;5.152;2023-05-10T12:59:37;11;11;
79537;PMS5003;68989;52.032;5.152;2023-05-10T13:02:04;12;11;
79537;PMS5003;68989;52.032;5.152;2023-05-10T13:04:31;13;12;
79537;PMS5003;68989;52.032;5.152;2023-05-10T13:06:58;13;12;
79537;PMS5003;68989;52.032;5.152;2023-05-10T13:09:25;9;9;
79537;PMS5003;68989;52.032;5.152;2023-05-10T13:11:53;14;12;
79537;PMS5003;68989;52.032;5.152;2023-05-10T13:14:20;9;9;
79537;PMS5003;68989;52.032;5.152;2023-05-10T13:16:47;12;11;
79537;PMS5003;68989;52.032;5.152;2023-05-10T13:19:14;13;12;
79537;PMS5003;68989;52.032;5.152;2023-05-10T13:21:41;12;10;
79537;PMS5003;68989;52.032;5.152;2023-05-10T13:24:09;12;10;
79537;PMS5003;68989;52.032;5.152;2023-05-10T13:26:37;16;13;
79537;PMS5003;68989;52.032;5.152;2023-05-10T13:29:04;13;13;
79537;PMS5003;68989;52.032;5.152;2023-05-10T13:31:31;11;9;
79537;PMS5003;68989;52.032;5.152;2023-05-10T13:33:58;12;10;
79537;PMS5003;68989;52.032;5.152;2023-05-10T13:36:25;13;12;
79537;PMS5003;68989;52.032;5.152;2023-05-10T13:38:52;10;10;
79537;PMS5003;68989;52.032;5.152;2023-05-10T13:41:19;15;11;
79537;PMS5003;68989;52.032;5.152;2023-05-10T13:43:46;13;12;
79537;PMS5003;68989;52.032;5.152;2023-05-10T13:46:13;11;11;
79537;PMS5003;68989;52.032;5.152;2023-05-10T13:48:40;12;12;
79537;PMS5003;68989;52.032;5.152;2023-05-10T13:51:07;13;12;
79537;PMS5003;68989;52.032;5.152;2023-05-10T13:53:34;11;11;
79537;PMS5003;68989;52.032;5.152;2023-05-10T13:56:02;13;12;
79537;PMS5003;68989;52.032;5.152;2023-05-10T13:58:29;11;10;
79537;PMS5003;68989;52.032;5.152;2023-05-10T14:00:57;15;11;
79537;PMS5003;68989;52.032;5.152;2023-05-10T14:03:24;10;10;
79537;PMS5003;68989;52.032;5.152;2023-05-10T14:05:51;9;9;
79537;PMS5003;68989;52.032;5.152;2023-05-10T14:08:18;11;11;
79537;PMS5003;68989;52.032;5.152;2023-05-10T14:10:45;16;14;
79537;PMS5003;68989;52.032;5.152;2023-05-10T14:13:12;14;12;
79537;PMS5003;68989;52.032;5.152;2023-05-10T14:15:39;10;10;
79537;PMS5003;68989;52.032;5.152;2023-05-10T14:18:06;14;13;
79537;PMS5003;68989;52.032;5.152;2023-05-10T14:20:33;15;15;
79537;PMS5003;68989;52.032;5.152;2023-05-10T14:23:01;12;12;
79537;PMS5003;68989;52.032;5.152;2023-05-10T14:25:28;16;14;
79537;PMS5003;68989;52.032;5.152;2023-05-10T14:27:55;11;11;
79537;PMS5003;68989;52.032;5.152;2023-05-10T14:30:22;10;9;
79537;PMS5003;68989;52.032;5.152;2023-05-10T14:32:49;13;11;
79537;PMS5003;68989;52.032;5.152;2023-05-10T14:35:17;14;10;
79537;PMS5003;68989;52.032;5.152;2023-05-10T14:37:45;11;11;
79537;PMS5003;68989;52.032;5.152;2023-05-10T14:40:12;10;10;
79537;PMS5003;68989;52.032;5.152;2023-05-10T14:42:39;12;12;
79537;PMS5003;68989;52.032;5.152;2023-05-10T14:45:07;11;10;
79537;PMS5003;68989;52.032;5.152;2023-05-10T14:47:35;12;12;
79537;PMS5003;68989;52.032;5.152;2023-05-10T14:50:02;11;11;
79537;PMS5003;68989;52.032;5.152;2023-05-10T14:52:30;12;10;
79537;PMS5003;68989;52.032;5.152;2023-05-10T14:54:56;12;11;
79537;PMS5003;68989;52.032;5.152;2023-05-10T14:57:24;12;11;
79537;PMS5003;68989;52.032;5.152;2023-05-10T14:59:51;11;9;
79537;PMS5003;68989;52.032;5.152;2023-05-10T15:02:17;10;10;
79537;PMS5003;68989;52.032;5.152;2023-05-10T15:04:44;11;9;
79537;PMS5003;68989;52.032;5.152;2023-05-10T15:07:11;10;9;
79537;PMS5003;68989;52.032;5.152;2023-05-10T15:09:38;12;11;
79537;PMS5003;68989;52.032;5.152;2023-05-10T15:12:05;14;13;
79537;PMS5003;68989;52.032;5.152;2023-05-10T15:14:32;10;10;
79537;PMS5003;68989;52.032;5.152;2023-05-10T15:16:59;14;11;
79537;PMS5003;68989;52.032;5.152;2023-05-10T15:19:27;12;11;
79537;PMS5003;68989;52.032;5.152;2023-05-10T15:21:54;11;11;
79537;PMS5003;68989;52.032;5.152;2023-05-10T15:24:20;13;11;
79537;PMS5003;68989;52.032;5.152;2023-05-10T15:26:48;13;10;
79537;PMS5003;68989;52.032;5.152;2023-05-10T15:29:15;10;10;
79537;PMS5003;68989;52.032;5.152;2023-05-10T15:31:41;13;10;
79537;PMS5003;68989;52.032;5.152;2023-05-10T15:34:09;11;10;
79537;PMS5003;68989;52.032;5.152;2023-05-10T15:36:36;11;10;
79537;PMS5003;68989;52.032;5.152;2023-05-10T15:39:03;12;12;
79537;PMS5003;68989;52.032;5.152;2023-05-10T15:41:30;11;8;
79537;PMS5003;68989;52.032;5.152;2023-05-10T15:43:57;12;11;
79537;PMS5003;68989;52.032;5.152;2023-05-10T15:46:24;11;10;
79537;PMS5003;68989;52.032;5.152;2023-05-10T15:48:52;9;9;
79537;PMS5003;68989;52.032;5.152;2023-05-10T15:51:19;10;10;
79537;PMS5003;68989;52.032;5.152;2023-05-10T15:53:46;10;10;
79537;PMS5003;68989;52.032;5.152;2023-05-10T15:56:13;11;11;
79537;PMS5003;68989;52.032;5.152;2023-05-10T15:58:40;11;11;
79537;PMS5003;68989;52.032;5.152;2023-05-10T16:01:07;10;10;
79537;PMS5003;68989;52.032;5.152;2023-05-10T16:03:35;14;14;
79537;PMS5003;68989;52.032;5.152;2023-05-10T16:06:02;16;13;
79537;PMS5003;68989;52.032;5.152;2023-05-10T16:08:29;10;10;
79537;PMS5003;68989;52.032;5.152;2023-05-10T16:10:56;12;12;
79537;PMS5003;68989;52.032;5.152;2023-05-10T16:13:23;12;9;
79537;PMS5003;68989;52.032;5.152;2023-05-10T16:15:50;11;11;
79537;PMS5003;68989;52.032;5.152;2023-05-10T16:18:18;12;12;
79537;PMS5003;68989;52.032;5.152;2023-05-10T16:20:45;14;12;
79537;PMS5003;68989;52.032;5.152;2023-05-10T16:23:12;15;15;
79537;PMS5003;68989;52.032;5.152;2023-05-10T16:25:39;14;12;
79537;PMS5003;68989;52.032;5.152;2023-05-10T16:28:07;16;12;
79537;PMS5003;68989;52.032;5.152;2023-05-10T16:30:34;11;11;
79537;PMS5003;68989;52.032;5.152;2023-05-10T16:33:02;13;12;